Saturday, November 22, 2014
00:15 UTC
  |  Log In   |  Register Free
Airport Search:

Norwood Memorial Airport
(KOWD)

FAA data valid effective November 13, 2014 - January 08, 2015 (unless otherwise noted).

 
 
 
 
 
 
 
 
 
 
 
 
 
 

Current Aviation Weather for Norwood Memorial Airport (KOWD)

The most recent METAR observation for KOWD was updated at: 2320
METAR Summary (Translated METAR)
KOWD
212253Z 29008G17KT 10SM CLR M01/M13 A3033 RMK AO2 SLP271 T10061133
KBOS
212254Z 29013KT 10SM CLR M01/M14 A3032 RMK AO2 SLP268 T10061139
(12.7 nm NE from KOWD)
KBED
212356Z 28009KT 10SM CLR M03/M15 A3034 RMK AO2 SLP291 T10281150 10017 21028 51035
(17.6 nm NW from KOWD)
TAF Summary (Translated TAF)
KBOS
(12.7 nm NE from KOWD)
212113Z 2121/2224 29014G27KT P6SM FEW060 FM220000 29012G22KT P6SM FEW250 FM220400 29010G18KT P6SM FEW250 FM221100 25008KT P6SM FEW100 FM221400 24010G22KT P6SM SCT110 FM222100 23014G30KT P6SM BKN150
KBED
(17.6 nm NW from KOWD)
211727Z 2118/2218 30016G28KT P6SM SCT045 FM212100 30014G24KT P6SM SCT250 FM212300 29009KT P6SM FEW250 FM220600 28005KT P6SM FEW150 FM221500 24009KT P6SM SCT110
  Airport Weather Conditions for KOWD

 Current Weather at OWD
30° F
Fair
Northwest winds at 11.5 mph
OWD NOAA Radar

Pressure: 30.36 in
Humidity: 36%
Wind: Northwest at 11.5 MPH (10 KT)
Dew Point: 6.1°F
Visibility: 10.00 mi


Airport Weather Forecast for KOWD

Translated METAR and TAF for KOWD
Translated METAR for KOWD (0010 UTC 22 November 2014)
found at http://aviationweather.gov/adds/metars/
 
METAR text: KOWD 212353Z 30010KT 10SM CLR M01/M14 A3036 RMK AO2 SLP280 T10111144 10028 21017 51036
Conditions at: KOWD (NORWOOD , MA, US) observed 2353 UTC 21 November 2014
Temperature: -1.1°C (30°F)
Dewpoint: -14.4°C (6°F) [RH = 36%]
Pressure (altimeter): 30.36 inches Hg (1028.2 mb)
[Sea-level pressure: 1028.0 mb]
Winds: from the WNW (300 degrees) at 12 MPH (10 knots; 5.2 m/s)
Visibility: 10 or more miles (16+ km)
Ceiling: at least 12,000 feet AGL
Clouds: sky clear below 12,000 feet AGL
Weather: no significant weather observed at this time
Translated TAF for KOWD

There is no translated TAF available for this airport

Find All Airport Services Find A Hotel Find A Rental Car Find A Golf Course Find A Restaurant $100 Hamburger



FBO's on the Field
FBO Company Facility Photos Services Transportation Aviation Fuel Prices: Prices include tax
Catering Weather Repair Courtesy Rental Type 100LL JetA JetA+ MOGAS 8087
 
FlightLevel Aviation

Currently rated 2.7 by 2 people
FS:Shell
Last Updated: Nov-20
Login to update fuel prices
SS:
Contact FlightLevel AviationMore FBO Information
 
Add another FBO Facility Photos Catering Weather Repair Courtesy Rental Type 100LL JetA JetA+ MOGAS 8087
Services Transportation Aviation Fuel Prices: Prices include tax


model-print
model-print
model-print
model-print